createdAt,value
2022-10-13T00:01:18.996Z,64.34
2022-10-13T00:03:47.942Z,64.41
2022-10-13T00:06:24.165Z,64.36
2022-10-13T00:08:54.230Z,64.67
2022-10-13T00:11:25.760Z,64.40
2022-10-13T00:13:56.713Z,64.28
2022-10-13T00:16:25.662Z,63.93
2022-10-13T00:18:53.864Z,64.51
2022-10-13T00:21:24.203Z,63.77
2022-10-13T00:23:55.611Z,62.79
2022-10-13T00:26:25.564Z,63.98
2022-10-13T00:28:53.757Z,64.09
2022-10-13T00:31:23.133Z,63.70
2022-10-13T00:33:51.859Z,63.64
2022-10-13T00:36:22.168Z,63.74
2022-10-13T00:38:50.225Z,64.44
2022-10-13T00:41:20.406Z,62.50
2022-10-13T00:43:58.206Z,63.17
2022-10-13T00:46:28.177Z,62.65
2022-10-13T00:49:01.928Z,63.54
2022-10-13T00:51:35.793Z,63.26
2022-10-13T00:54:07.029Z,63.43
2022-10-13T00:56:40.596Z,62.88
2022-10-13T00:59:18.934Z,63.10
2022-10-13T01:01:46.968Z,63.45
2022-10-13T01:04:15.147Z,63.52
2022-10-13T01:06:43.285Z,64.47
2022-10-13T01:09:14.738Z,63.61
2022-10-13T01:11:58.030Z,64.57
2022-10-13T01:14:34.308Z,63.27
2022-10-13T01:17:12.714Z,63.65
2022-10-13T01:20:10.777Z,63.26
2022-10-13T01:22:56.509Z,63.07
2022-10-13T01:25:40.618Z,63.78
2022-10-13T01:28:30.371Z,62.83
2022-10-13T01:31:04.624Z,64.10
2022-10-13T01:33:42.911Z,63.72
2022-10-13T01:36:21.833Z,63.44
2022-10-13T01:38:56.154Z,63.66
2022-10-13T01:41:33.585Z,63.18
2022-10-13T01:44:07.139Z,62.57
2022-10-13T01:46:39.470Z,62.14
2022-10-13T01:49:11.587Z,62.69
2022-10-13T01:51:41.062Z,62.84
2022-10-13T01:54:09.299Z,62.97
2022-10-13T01:56:37.276Z,62.67
2022-10-13T01:59:10.832Z,62.85
2022-10-13T02:01:56.912Z,63.38
2022-10-13T02:04:37.166Z,63.59
2022-10-13T02:07:12.546Z,62.91
2022-10-13T02:09:49.732Z,64.34
2022-10-13T02:12:25.835Z,64.00
2022-10-13T02:14:56.007Z,63.71
2022-10-13T02:17:27.163Z,64.27
2022-10-13T02:19:56.591Z,64.70
2022-10-13T02:22:30.827Z,64.82
2022-10-13T02:25:00.710Z,64.53
2022-10-13T02:27:29.752Z,64.25
2022-10-13T02:29:58.910Z,64.57
2022-10-13T02:32:33.022Z,64.27
2022-10-13T02:35:01.116Z,63.56
2022-10-13T02:37:29.072Z,64.10
2022-10-13T02:39:57.065Z,64.01
2022-10-13T02:42:25.022Z,64.10
2022-10-13T02:44:56.780Z,64.67
2022-10-13T02:47:24.853Z,64.92
2022-10-13T02:49:54.818Z,65.44
2022-10-13T02:52:22.909Z,65.38
2022-10-13T02:54:50.970Z,64.79
2022-10-13T02:57:19.433Z,64.11
2022-10-13T02:59:49.089Z,64.41
2022-10-13T03:02:18.328Z,65.44
2022-10-13T03:04:47.152Z,64.60
2022-10-13T03:07:16.813Z,64.60
2022-10-13T03:09:45.257Z,65.53
2022-10-13T03:12:13.346Z,65.15
2022-10-13T03:14:41.326Z,64.34
2022-10-13T03:17:13.247Z,65.39
2022-10-13T03:19:41.800Z,66.31
2022-10-13T03:22:15.473Z,66.08
2022-10-13T03:24:45.136Z,65.97
2022-10-13T03:27:13.757Z,65.95
2022-10-13T03:29:41.740Z,65.54
2022-10-13T03:32:10.111Z,65.63
2022-10-13T03:34:38.087Z,65.49
2022-10-13T03:37:06.326Z,65.43
2022-10-13T03:39:40.485Z,67.02
2022-10-13T03:42:11.385Z,67.24
2022-10-13T03:44:40.476Z,68.03
2022-10-13T03:47:08.496Z,66.63
2022-10-13T03:49:36.757Z,66.27
2022-10-13T03:52:05.652Z,67.54
2022-10-13T03:54:33.560Z,67.44
2022-10-13T03:57:03.759Z,66.26
2022-10-13T03:59:36.744Z,66.09
2022-10-13T04:02:05.454Z,65.61
2022-10-13T04:04:33.492Z,65.75
2022-10-13T04:07:01.530Z,65.56
2022-10-13T04:09:29.676Z,64.93
2022-10-13T04:11:57.715Z,67.68
2022-10-13T04:14:25.735Z,66.90
2022-10-13T04:17:00.456Z,67.31
2022-10-13T04:19:28.501Z,66.13
2022-10-13T04:21:56.995Z,67.06
2022-10-13T04:24:25.018Z,67.12
2022-10-13T04:26:53.095Z,67.19
2022-10-13T04:29:21.356Z,67.52
2022-10-13T04:31:52.953Z,67.72
2022-10-13T04:34:22.340Z,67.19
2022-10-13T04:36:51.787Z,67.04
2022-10-13T04:39:19.756Z,66.48
2022-10-13T04:41:50.728Z,66.74
2022-10-13T04:44:18.714Z,68.32
2022-10-13T04:46:46.676Z,66.33
2022-10-13T04:49:15.349Z,66.88
2022-10-13T04:51:44.811Z,66.24
2022-10-13T04:54:12.821Z,66.72
2022-10-13T04:56:40.857Z,65.61
2022-10-13T04:59:08.867Z,64.95
2022-10-13T05:01:36.996Z,65.67
2022-10-13T05:04:07.572Z,67.16
2022-10-13T05:06:58.821Z,65.46
2022-10-13T05:09:28.744Z,66.40
2022-10-13T05:11:57.517Z,66.74
2022-10-13T05:14:27.062Z,67.54
2022-10-13T05:16:56.114Z,66.58
2022-10-13T05:19:24.853Z,66.00
2022-10-13T05:21:55.464Z,66.94
2022-10-13T05:24:31.174Z,66.45
2022-10-13T05:27:00.613Z,67.18
2022-10-13T05:29:31.660Z,67.08
2022-10-13T05:31:59.728Z,69.03
2022-10-13T05:34:32.276Z,67.38
2022-10-13T05:37:00.746Z,66.87
2022-10-13T05:39:29.086Z,67.04
2022-10-13T05:41:57.725Z,67.05
2022-10-13T05:44:27.550Z,67.73
2022-10-13T05:46:58.101Z,67.88
2022-10-13T05:49:26.991Z,68.35
2022-10-13T05:51:57.950Z,68.42
2022-10-13T05:54:30.955Z,67.99
2022-10-13T05:57:02.536Z,67.75
2022-10-13T05:59:36.110Z,69.26
2022-10-13T06:02:05.465Z,67.74
2022-10-13T06:04:39.545Z,67.53
2022-10-13T06:07:09.129Z,67.03
2022-10-13T06:09:40.419Z,67.93
2022-10-13T06:12:09.603Z,68.45
2022-10-13T06:14:39.110Z,67.02
2022-10-13T06:17:08.409Z,67.33
2022-10-13T06:19:36.584Z,68.54
2022-10-13T06:22:10.640Z,67.88
2022-10-13T06:24:38.670Z,67.39
2022-10-13T06:27:28.759Z,67.37
2022-10-13T06:29:59.926Z,67.78
2022-10-13T06:32:27.967Z,66.76
2022-10-13T06:34:56.013Z,100.00
2022-10-13T06:37:27.364Z,100.00
2022-10-13T06:39:55.918Z,100.00
2022-10-13T06:42:23.961Z,100.00
2022-10-13T06:45:11.702Z,100.00
2022-10-13T06:47:41.638Z,100.00
2022-10-13T06:50:11.009Z,100.00
2022-10-13T06:52:39.795Z,100.00
2022-10-13T06:55:11.208Z,100.00
2022-10-13T06:57:39.271Z,100.00
2022-10-13T07:00:11.692Z,100.00
2022-10-13T07:02:39.852Z,100.00
2022-10-13T07:05:10.936Z,100.00
2022-10-13T07:07:39.009Z,100.00
2022-10-13T07:10:08.714Z,100.00
2022-10-13T07:12:36.770Z,100.00
2022-10-13T07:15:05.047Z,100.00
2022-10-13T07:17:34.454Z,100.00
2022-10-13T07:20:07.238Z,100.00
2022-10-13T07:22:46.996Z,100.00
2022-10-13T07:25:18.067Z,100.00
2022-10-13T07:27:46.405Z,100.00
2022-10-13T07:30:14.585Z,100.00
2022-10-13T07:32:44.210Z,100.00
2022-10-13T07:35:12.969Z,100.00
2022-10-13T07:37:40.941Z,100.00
2022-10-13T07:40:10.074Z,100.00
2022-10-13T07:42:38.222Z,100.00
2022-10-13T07:45:07.944Z,100.00
2022-10-13T07:47:35.960Z,100.00
2022-10-13T07:50:06.049Z,100.00
2022-10-13T07:52:36.233Z,100.00
2022-10-13T07:55:05.635Z,100.00
2022-10-13T07:57:33.695Z,100.00
2022-10-13T08:00:01.935Z,100.00
2022-10-13T08:02:40.410Z,100.00
2022-10-13T08:05:10.300Z,100.00
2022-10-13T08:07:41.425Z,100.00
2022-10-13T08:10:10.168Z,100.00
2022-10-13T08:12:39.005Z,100.00
2022-10-13T08:15:08.194Z,100.00
2022-10-13T08:17:36.838Z,100.00
2022-10-13T08:20:06.286Z,100.00
2022-10-13T08:22:35.817Z,100.00
2022-10-13T08:25:04.131Z,100.00
2022-10-13T08:27:50.291Z,100.00
2022-10-13T08:30:21.305Z,100.00
2022-10-13T08:32:49.523Z,100.00
2022-10-13T08:35:17.544Z,100.00
2022-10-13T08:37:46.920Z,100.00
2022-10-13T08:40:20.712Z,100.00
2022-10-13T08:42:48.762Z,100.00
2022-10-13T08:45:40.369Z,100.00
2022-10-13T08:48:15.280Z,100.00
2022-10-13T08:50:46.793Z,100.00
2022-10-13T08:53:22.558Z,100.00
2022-10-13T08:55:56.820Z,100.00
2022-10-13T08:58:28.080Z,100.00
2022-10-13T09:01:06.602Z,100.00
2022-10-13T09:03:45.260Z,100.00
2022-10-13T09:06:18.188Z,100.00
2022-10-13T09:08:53.648Z,100.00
2022-10-13T09:11:22.695Z,100.00
2022-10-13T09:13:55.711Z,100.00
2022-10-13T09:16:37.468Z,100.00
2022-10-13T09:19:16.432Z,100.00
2022-10-13T09:21:44.591Z,100.00
2022-10-13T09:24:17.778Z,100.00
2022-10-13T09:26:47.488Z,100.00
2022-10-13T09:29:19.544Z,100.00
2022-10-13T09:31:49.399Z,100.00
2022-10-13T09:34:26.387Z,100.00
2022-10-13T09:37:01.126Z,100.00
2022-10-13T09:39:32.244Z,100.00
2022-10-13T09:42:25.191Z,100.00
2022-10-13T09:45:02.796Z,100.00
2022-10-13T09:47:33.228Z,100.00
2022-10-13T09:50:07.426Z,100.00
2022-10-13T09:52:36.001Z,100.00
2022-10-13T09:55:32.858Z,100.00
2022-10-13T09:58:06.187Z,100.00
2022-10-13T10:00:34.620Z,100.00
2022-10-13T10:03:06.669Z,100.00
2022-10-13T10:05:43.105Z,100.00
2022-10-13T10:08:18.037Z,100.00
2022-10-13T10:10:47.581Z,100.00
2022-10-13T10:13:16.381Z,100.00
2022-10-13T10:15:57.726Z,100.00
2022-10-13T10:18:36.744Z,100.00
2022-10-13T10:21:10.805Z,100.00
2022-10-13T10:23:46.764Z,100.00
2022-10-13T10:26:24.878Z,100.00
2022-10-13T10:29:09.123Z,100.00
2022-10-13T10:31:55.208Z,100.00
2022-10-13T10:34:35.998Z,100.00
2022-10-13T10:37:19.688Z,100.00
2022-10-13T10:39:53.933Z,100.00
2022-10-13T10:42:42.014Z,100.00
2022-10-13T10:45:18.323Z,100.00
2022-10-13T10:47:50.116Z,100.00
2022-10-13T10:50:20.440Z,100.00
2022-10-13T10:52:58.575Z,100.00
2022-10-13T10:55:32.523Z,100.00
2022-10-13T10:58:14.649Z,100.00
2022-10-13T11:00:52.346Z,100.00
2022-10-13T11:03:30.966Z,100.00
2022-10-13T11:06:04.567Z,100.00
2022-10-13T11:08:42.188Z,100.00
2022-10-13T11:11:39.255Z,100.00
2022-10-13T11:14:38.522Z,100.00
2022-10-13T11:17:19.423Z,100.00
2022-10-13T11:19:49.374Z,100.00
2022-10-13T11:22:27.647Z,100.00
2022-10-13T11:25:30.037Z,100.00
2022-10-13T11:27:58.016Z,100.00
2022-10-13T11:30:47.373Z,100.00
2022-10-13T11:33:36.744Z,100.00
2022-10-13T11:36:30.841Z,100.00
2022-10-13T11:39:07.699Z,100.00
2022-10-13T11:41:42.663Z,100.00
2022-10-13T11:44:17.352Z,100.00
2022-10-13T11:47:01.292Z,100.00
2022-10-13T11:49:52.388Z,100.00
2022-10-13T11:52:36.127Z,100.00
2022-10-13T11:55:12.189Z,100.00
2022-10-13T11:57:42.771Z,100.00
2022-10-13T12:00:15.677Z,100.00
2022-10-13T12:02:53.279Z,100.00
2022-10-13T12:05:24.352Z,100.00
2022-10-13T12:07:55.630Z,100.00
2022-10-13T12:10:30.615Z,100.00
2022-10-13T12:13:02.450Z,100.00
2022-10-13T12:15:35.214Z,100.00
2022-10-13T12:18:19.921Z,100.00
2022-10-13T12:20:54.501Z,100.00
2022-10-13T12:23:23.423Z,100.00
2022-10-13T12:25:57.371Z,100.00
2022-10-13T12:28:27.435Z,100.00
2022-10-13T12:30:57.513Z,100.00
2022-10-13T12:33:31.518Z,100.00
2022-10-13T12:36:14.311Z,100.00
2022-10-13T12:38:48.122Z,100.00
2022-10-13T12:41:20.407Z,100.00
2022-10-13T12:43:48.791Z,100.00
2022-10-13T12:46:38.272Z,100.00
2022-10-13T12:49:08.583Z,100.00
2022-10-13T12:51:39.489Z,100.00
2022-10-13T12:54:09.601Z,100.00
2022-10-13T12:56:37.802Z,100.00
2022-10-13T12:59:05.801Z,100.00
2022-10-13T13:01:35.575Z,100.00
2022-10-13T13:04:20.076Z,100.00
2022-10-13T13:06:56.491Z,100.00
2022-10-13T13:09:27.453Z,100.00
2022-10-13T13:12:23.584Z,100.00
2022-10-13T13:14:55.037Z,100.00
2022-10-13T13:17:52.842Z,100.00
2022-10-13T13:20:27.082Z,100.00
2022-10-13T13:22:55.248Z,100.00
2022-10-13T13:25:23.609Z,100.00
2022-10-13T13:27:53.025Z,100.00
2022-10-13T13:30:22.871Z,100.00
2022-10-13T13:32:52.706Z,100.00
2022-10-13T13:35:22.071Z,100.00
2022-10-13T13:37:52.916Z,100.00
2022-10-13T13:40:22.734Z,100.00
2022-10-13T13:42:50.910Z,100.00
2022-10-13T13:45:20.819Z,100.00
2022-10-13T13:47:49.004Z,100.00
2022-10-13T13:50:22.000Z,100.00
2022-10-13T13:53:00.458Z,100.00
2022-10-13T13:55:29.862Z,100.00
2022-10-13T13:57:58.750Z,100.00
2022-10-13T14:00:29.631Z,100.00
2022-10-13T14:03:04.343Z,100.00
2022-10-13T14:05:32.548Z,100.00
2022-10-13T14:08:02.404Z,100.00
2022-10-13T14:10:30.465Z,100.00
2022-10-13T14:12:58.629Z,100.00
2022-10-13T14:15:29.656Z,100.00
2022-10-13T14:18:01.021Z,100.00
